createdAt,value
2022-08-29T14:07:03.944Z,27.97
2022-08-29T14:09:44.374Z,27.90
2022-08-29T14:12:16.840Z,27.83
2022-08-29T14:14:48.662Z,27.80
2022-08-29T14:17:21.245Z,28.00
2022-08-29T14:19:51.973Z,27.88
2022-08-29T14:22:22.683Z,27.62
2022-08-29T14:24:55.562Z,27.73
2022-08-29T14:27:26.239Z,27.96
2022-08-29T14:29:57.074Z,27.94
2022-08-29T14:32:28.378Z,27.91
2022-08-29T14:34:59.000Z,28.22
2022-08-29T14:37:29.793Z,28.49
2022-08-29T14:40:00.637Z,28.65
2022-08-29T14:42:31.633Z,28.84
2022-08-29T14:45:02.262Z,28.96
2022-08-29T14:47:33.087Z,29.07
2022-08-29T14:50:03.602Z,29.17
2022-08-29T14:52:34.562Z,29.23
2022-08-29T14:55:05.173Z,29.29
2022-08-29T14:57:35.909Z,29.33
2022-08-29T15:00:28.185Z,29.36
2022-08-29T15:02:59.176Z,29.42
2022-08-29T15:05:29.482Z,29.45
2022-08-29T15:08:04.332Z,29.48
2022-08-29T15:10:37.659Z,29.51
2022-08-29T15:13:09.922Z,29.59
2022-08-29T15:15:40.916Z,29.57
2022-08-29T15:18:30.523Z,29.59
2022-08-29T15:21:04.199Z,29.59
2022-08-29T15:23:36.548Z,29.61
2022-08-29T15:26:07.341Z,29.60
2022-08-29T15:28:38.007Z,29.63
2022-08-29T15:31:08.726Z,29.64
2022-08-29T15:33:39.420Z,29.64
2022-08-29T15:36:10.813Z,29.71
2022-08-29T15:38:41.616Z,29.73
2022-08-29T15:41:12.301Z,29.75
2022-08-29T15:43:43.064Z,29.73
2022-08-29T15:46:14.178Z,29.68
2022-08-29T15:48:44.813Z,29.68
2022-08-29T15:51:15.630Z,29.65
2022-08-29T15:53:46.355Z,29.68
2022-08-29T15:56:16.898Z,29.66
2022-08-29T15:58:47.624Z,29.65
2022-08-29T16:01:19.971Z,29.66
2022-08-29T16:03:50.740Z,29.67
2022-08-29T16:06:21.388Z,29.65
2022-08-29T16:08:55.426Z,29.68
2022-08-29T16:11:25.877Z,29.67
2022-08-29T16:14:34.549Z,29.65
2022-08-29T16:16:50.234Z,29.65
2022-08-29T16:19:21.514Z,29.64
2022-08-29T16:21:51.839Z,29.61
2022-08-29T16:24:24.428Z,29.60
2022-08-29T16:26:54.706Z,29.60
2022-08-29T16:29:25.705Z,29.60
2022-08-29T16:31:58.233Z,29.59
2022-08-29T16:34:29.632Z,29.60
2022-08-29T16:37:00.229Z,29.59
2022-08-29T16:39:30.951Z,29.56
2022-08-29T16:42:01.678Z,29.56
2022-08-29T16:44:34.422Z,29.56
2022-08-29T16:47:04.703Z,29.59
2022-08-29T16:49:37.687Z,29.59
2022-08-29T16:52:08.938Z,29.58
2022-08-29T16:54:39.336Z,29.57
2022-08-29T16:57:09.743Z,29.61
2022-08-29T16:59:40.021Z,29.54
2022-08-29T17:02:10.742Z,29.57
2022-08-29T17:04:41.112Z,29.54
2022-08-29T17:07:11.344Z,29.53
2022-08-29T17:09:41.390Z,29.53
2022-08-29T17:12:11.463Z,29.52
2022-08-29T17:14:42.167Z,29.52
2022-08-29T17:17:12.655Z,29.51
2022-08-29T17:19:42.993Z,29.53
2022-08-29T17:22:18.406Z,29.53
2022-08-29T17:24:51.879Z,29.54
2022-08-29T17:27:26.789Z,29.56
2022-08-29T17:29:59.685Z,29.57
2022-08-29T17:32:30.686Z,29.56
2022-08-29T17:35:01.032Z,29.56
2022-08-29T17:37:31.691Z,29.57
2022-08-29T17:40:12.215Z,29.56
2022-08-29T17:42:42.801Z,29.57
2022-08-29T17:45:13.782Z,29.57
2022-08-29T17:47:44.061Z,29.56
2022-08-29T17:50:14.615Z,29.58
2022-08-29T17:52:44.904Z,29.57
2022-08-29T17:55:15.098Z,29.58
2022-08-29T17:57:45.383Z,29.57
2022-08-29T18:00:16.222Z,29.55
2022-08-29T18:02:46.709Z,29.54
2022-08-29T18:05:17.098Z,29.53
2022-08-29T18:07:47.527Z,29.54
2022-08-29T18:10:19.333Z,29.53
2022-08-29T18:12:49.814Z,29.52
2022-08-29T18:15:20.759Z,29.54
2022-08-29T18:17:54.096Z,29.56
2022-08-29T18:20:25.856Z,29.52
2022-08-29T18:22:56.092Z,29.51
2022-08-29T18:25:26.397Z,29.52
2022-08-29T18:27:56.751Z,29.51
2022-08-29T18:30:26.966Z,29.51
2022-08-29T18:32:57.302Z,29.51
2022-08-29T18:35:27.428Z,29.50
2022-08-29T18:37:57.574Z,29.45
2022-08-29T18:40:28.052Z,29.47
2022-08-29T18:42:58.429Z,29.46
2022-08-29T18:45:28.727Z,29.46
2022-08-29T18:47:59.024Z,29.45
2022-08-29T18:50:42.436Z,29.46
2022-08-29T18:53:14.008Z,29.44
2022-08-29T18:55:51.073Z,29.43
2022-08-29T18:58:29.911Z,29.41
2022-08-29T19:01:02.189Z,29.47
2022-08-29T19:03:32.717Z,29.44
2022-08-29T19:06:03.360Z,29.46
2022-08-29T19:08:34.924Z,29.44
2022-08-29T19:11:06.458Z,29.42
2022-08-29T19:13:38.575Z,29.41
2022-08-29T19:16:12.346Z,29.44
2022-08-29T19:18:43.369Z,29.43
2022-08-29T19:21:14.012Z,29.44
2022-08-29T19:23:52.372Z,29.50
2022-08-29T19:26:26.905Z,29.51
2022-08-29T19:28:59.511Z,29.47
2022-08-29T19:31:30.575Z,29.51
2022-08-29T19:34:01.883Z,29.42
2022-08-29T19:36:32.493Z,29.44
2022-08-29T19:39:03.309Z,29.46
2022-08-29T19:41:37.472Z,29.46
2022-08-29T19:44:08.144Z,29.47
2022-08-29T19:46:38.783Z,29.51
2022-08-29T19:49:09.501Z,29.47
2022-08-29T19:51:40.753Z,29.45
2022-08-29T19:54:12.613Z,29.40
2022-08-29T19:56:46.835Z,29.42
2022-08-29T19:59:17.860Z,29.37
2022-08-29T20:01:49.718Z,29.36
2022-08-29T20:04:20.191Z,29.39
2022-08-29T20:06:50.971Z,29.43
2022-08-29T20:09:21.731Z,29.40
2022-08-29T20:11:56.125Z,29.39
2022-08-29T20:14:26.832Z,29.36
2022-08-29T20:16:57.722Z,29.40
2022-08-29T20:19:29.592Z,29.39
2022-08-29T20:22:00.262Z,29.37
2022-08-29T20:24:30.799Z,29.38
2022-08-29T20:27:01.743Z,29.41
2022-08-29T20:29:32.756Z,29.36
2022-08-29T20:32:04.519Z,29.41
2022-08-29T20:34:35.166Z,29.39
2022-08-29T20:37:11.656Z,29.40
2022-08-29T20:39:45.495Z,29.38
2022-08-29T20:42:18.334Z,29.36
2022-08-29T20:44:49.518Z,29.36
2022-08-29T20:47:21.285Z,29.37
2022-08-29T20:49:53.535Z,29.41
2022-08-29T20:52:26.856Z,29.35
2022-08-29T20:54:57.591Z,29.34
2022-08-29T20:57:28.285Z,29.34
2022-08-29T20:59:58.831Z,29.35
2022-08-29T21:02:47.944Z,29.31
2022-08-29T21:05:37.282Z,29.31
2022-08-29T21:08:08.107Z,29.31
2022-08-29T21:10:38.881Z,29.31
2022-08-29T21:13:09.950Z,29.30
2022-08-29T21:15:42.464Z,29.30
2022-08-29T21:18:15.808Z,29.26
2022-08-29T21:20:54.631Z,29.25
2022-08-29T21:23:27.753Z,29.27
2022-08-29T21:26:00.898Z,29.32
2022-08-29T21:28:35.567Z,29.29
2022-08-29T21:31:14.601Z,29.27
2022-08-29T21:33:48.236Z,29.31
2022-08-29T21:36:22.739Z,29.28
2022-08-29T21:39:00.660Z,29.29
2022-08-29T21:41:33.685Z,29.28
2022-08-29T21:44:04.445Z,29.25
2022-08-29T21:46:38.609Z,29.26
2022-08-29T21:49:10.534Z,29.24
2022-08-29T21:51:41.493Z,29.25
2022-08-29T21:54:13.731Z,29.26
2022-08-29T21:56:45.896Z,29.24
2022-08-29T21:59:19.166Z,29.25
2022-08-29T22:01:54.605Z,29.21
2022-08-29T22:04:28.105Z,29.22
2022-08-29T22:07:01.764Z,29.21
2022-08-29T22:09:33.599Z,29.23
2022-08-29T22:12:06.436Z,29.21
2022-08-29T22:14:55.226Z,29.21
2022-08-29T22:17:26.298Z,29.23
2022-08-29T22:19:57.023Z,29.22
2022-08-29T22:22:28.710Z,29.19
2022-08-29T22:24:59.511Z,29.21
2022-08-29T22:27:30.144Z,29.25
2022-08-29T22:30:03.679Z,29.25
2022-08-29T22:32:35.505Z,29.23
2022-08-29T22:35:08.626Z,29.29
2022-08-29T22:37:39.569Z,29.27
2022-08-29T22:40:15.250Z,29.25
2022-08-29T22:42:47.536Z,29.29
2022-08-29T22:45:21.270Z,29.29
2022-08-29T22:47:51.757Z,29.28
2022-08-29T22:50:25.450Z,29.28
2022-08-29T22:53:01.094Z,29.26
2022-08-29T22:58:00.027Z,29.28
2022-08-29T23:00:30.697Z,29.30
2022-08-29T23:03:01.413Z,29.27
